sensor_id;sensor_type;location;lat;lon;timestamp;P1;durP1;ratioP1;P2;durP2;ratioP2
18072;SDS011;9161;47.348;9.648;2023-05-19T00:03:37;9.43;;;3.80;;
18072;SDS011;9161;47.348;9.648;2023-05-19T00:08:53;8.10;;;3.17;;
18072;SDS011;9161;47.348;9.648;2023-05-19T00:13:58;6.07;;;3.27;;
18072;SDS011;9161;47.348;9.648;2023-05-19T00:19:03;5.80;;;3.57;;
18072;SDS011;9161;47.348;9.648;2023-05-19T00:24:09;6.50;;;3.27;;
18072;SDS011;9161;47.348;9.648;2023-05-19T00:29:12;5.97;;;3.10;;
18072;SDS011;9161;47.348;9.648;2023-05-19T00:34:18;5.73;;;3.27;;
18072;SDS011;9161;47.348;9.648;2023-05-19T00:39:20;4.57;;;3.10;;
18072;SDS011;9161;47.348;9.648;2023-05-19T00:44:22;4.90;;;2.83;;
18072;SDS011;9161;47.348;9.648;2023-05-19T00:49:26;5.93;;;2.50;;
18072;SDS011;9161;47.348;9.648;2023-05-19T00:54:28;5.00;;;2.60;;
18072;SDS011;9161;47.348;9.648;2023-05-19T00:59:30;6.70;;;3.67;;
18072;SDS011;9161;47.348;9.648;2023-05-19T01:04:34;4.07;;;2.87;;
18072;SDS011;9161;47.348;9.648;2023-05-19T01:09:38;6.87;;;3.53;;
18072;SDS011;9161;47.348;9.648;2023-05-19T01:14:41;7.00;;;3.63;;
18072;SDS011;9161;47.348;9.648;2023-05-19T01:19:51;6.03;;;3.17;;
18072;SDS011;9161;47.348;9.648;2023-05-19T01:25:12;4.60;;;3.37;;
18072;SDS011;9161;47.348;9.648;2023-05-19T01:30:32;8.40;;;3.53;;
18072;SDS011;9161;47.348;9.648;2023-05-19T01:35:37;6.43;;;3.63;;
18072;SDS011;9161;47.348;9.648;2023-05-19T01:40:40;4.47;;;2.80;;
18072;SDS011;9161;47.348;9.648;2023-05-19T01:45:44;6.10;;;2.83;;
18072;SDS011;9161;47.348;9.648;2023-05-19T01:50:47;5.17;;;3.20;;
18072;SDS011;9161;47.348;9.648;2023-05-19T01:55:49;6.90;;;2.60;;
18072;SDS011;9161;47.348;9.648;2023-05-19T02:00:55;6.03;;;3.20;;
18072;SDS011;9161;47.348;9.648;2023-05-19T02:06:05;5.63;;;3.30;;
18072;SDS011;9161;47.348;9.648;2023-05-19T02:11:18;4.87;;;3.03;;
18072;SDS011;9161;47.348;9.648;2023-05-19T02:16:27;5.70;;;3.37;;
18072;SDS011;9161;47.348;9.648;2023-05-19T02:21:29;5.90;;;3.50;;
18072;SDS011;9161;47.348;9.648;2023-05-19T02:26:32;5.73;;;3.47;;
18072;SDS011;9161;47.348;9.648;2023-05-19T02:31:36;4.73;;;3.07;;
18072;SDS011;9161;47.348;9.648;2023-05-19T02:36:38;4.07;;;2.70;;
18072;SDS011;9161;47.348;9.648;2023-05-19T02:41:42;6.93;;;3.07;;
18072;SDS011;9161;47.348;9.648;2023-05-19T02:46:45;6.27;;;3.70;;
18072;SDS011;9161;47.348;9.648;2023-05-19T02:51:48;6.40;;;3.70;;
18072;SDS011;9161;47.348;9.648;2023-05-19T02:56:50;7.33;;;4.30;;
18072;SDS011;9161;47.348;9.648;2023-05-19T03:01:53;8.30;;;4.43;;
18072;SDS011;9161;47.348;9.648;2023-05-19T03:06:57;8.43;;;4.27;;
18072;SDS011;9161;47.348;9.648;2023-05-19T03:11:59;5.33;;;3.57;;
18072;SDS011;9161;47.348;9.648;2023-05-19T03:17:04;5.40;;;3.33;;
18072;SDS011;9161;47.348;9.648;2023-05-19T03:22:09;4.90;;;3.43;;
18072;SDS011;9161;47.348;9.648;2023-05-19T03:27:11;4.70;;;3.00;;
18072;SDS011;9161;47.348;9.648;2023-05-19T03:32:15;7.87;;;3.83;;
18072;SDS011;9161;47.348;9.648;2023-05-19T03:37:17;8.17;;;4.00;;
18072;SDS011;9161;47.348;9.648;2023-05-19T03:42:19;6.17;;;4.10;;
18072;SDS011;9161;47.348;9.648;2023-05-19T03:47:22;8.97;;;4.27;;
18072;SDS011;9161;47.348;9.648;2023-05-19T03:52:25;7.70;;;4.10;;
18072;SDS011;9161;47.348;9.648;2023-05-19T03:57:27;10.80;;;4.47;;
18072;SDS011;9161;47.348;9.648;2023-05-19T04:02:31;11.00;;;4.70;;
18072;SDS011;9161;47.348;9.648;2023-05-19T04:07:33;9.13;;;5.13;;
18072;SDS011;9161;47.348;9.648;2023-05-19T04:12:36;8.53;;;4.23;;
18072;SDS011;9161;47.348;9.648;2023-05-19T04:17:39;5.63;;;3.60;;
18072;SDS011;9161;47.348;9.648;2023-05-19T04:22:42;7.50;;;4.00;;
18072;SDS011;9161;47.348;9.648;2023-05-19T04:27:43;7.77;;;4.30;;
18072;SDS011;9161;47.348;9.648;2023-05-19T04:32:48;7.53;;;3.90;;
18072;SDS011;9161;47.348;9.648;2023-05-19T04:37:51;10.80;;;4.73;;
18072;SDS011;9161;47.348;9.648;2023-05-19T04:42:54;9.30;;;4.47;;
18072;SDS011;9161;47.348;9.648;2023-05-19T04:47:57;13.33;;;4.27;;
18072;SDS011;9161;47.348;9.648;2023-05-19T04:53:01;16.87;;;4.77;;
18072;SDS011;9161;47.348;9.648;2023-05-19T04:58:03;10.57;;;4.60;;
18072;SDS011;9161;47.348;9.648;2023-05-19T05:03:06;9.03;;;4.40;;
18072;SDS011;9161;47.348;9.648;2023-05-19T05:08:09;14.30;;;4.67;;
18072;SDS011;9161;47.348;9.648;2023-05-19T05:13:12;8.73;;;4.03;;
18072;SDS011;9161;47.348;9.648;2023-05-19T05:18:16;11.43;;;4.60;;
18072;SDS011;9161;47.348;9.648;2023-05-19T05:23:19;8.33;;;4.23;;
18072;SDS011;9161;47.348;9.648;2023-05-19T05:28:21;9.83;;;4.00;;
18072;SDS011;9161;47.348;9.648;2023-05-19T05:33:25;7.47;;;4.70;;
18072;SDS011;9161;47.348;9.648;2023-05-19T05:38:28;11.80;;;4.70;;
18072;SDS011;9161;47.348;9.648;2023-05-19T05:43:30;8.23;;;4.10;;
18072;SDS011;9161;47.348;9.648;2023-05-19T05:48:34;6.03;;;3.63;;
18072;SDS011;9161;47.348;9.648;2023-05-19T05:53:40;6.83;;;2.70;;
18072;SDS011;9161;47.348;9.648;2023-05-19T05:58:49;4.03;;;2.80;;
18072;SDS011;9161;47.348;9.648;2023-05-19T06:03:53;3.97;;;2.60;;
18072;SDS011;9161;47.348;9.648;2023-05-19T06:08:55;6.83;;;3.00;;
18072;SDS011;9161;47.348;9.648;2023-05-19T06:13:59;4.00;;;2.33;;
18072;SDS011;9161;47.348;9.648;2023-05-19T06:19:03;5.10;;;2.67;;
18072;SDS011;9161;47.348;9.648;2023-05-19T06:24:05;5.50;;;2.87;;
18072;SDS011;9161;47.348;9.648;2023-05-19T06:29:07;4.53;;;2.73;;
18072;SDS011;9161;47.348;9.648;2023-05-19T06:34:11;6.10;;;2.50;;
18072;SDS011;9161;47.348;9.648;2023-05-19T06:39:17;4.27;;;2.10;;
18072;SDS011;9161;47.348;9.648;2023-05-19T06:44:19;4.47;;;2.53;;
18072;SDS011;9161;47.348;9.648;2023-05-19T06:49:24;4.27;;;2.23;;
18072;SDS011;9161;47.348;9.648;2023-05-19T06:54:28;5.43;;;2.30;;
18072;SDS011;9161;47.348;9.648;2023-05-19T06:59:30;4.17;;;2.40;;
18072;SDS011;9161;47.348;9.648;2023-05-19T07:04:34;4.67;;;2.60;;
18072;SDS011;9161;47.348;9.648;2023-05-19T07:09:36;5.67;;;2.50;;
18072;SDS011;9161;47.348;9.648;2023-05-19T07:14:38;6.70;;;2.17;;
18072;SDS011;9161;47.348;9.648;2023-05-19T07:19:42;3.07;;;2.10;;
18072;SDS011;9161;47.348;9.648;2023-05-19T07:24:44;6.23;;;2.27;;
18072;SDS011;9161;47.348;9.648;2023-05-19T07:29:46;4.97;;;2.20;;
18072;SDS011;9161;47.348;9.648;2023-05-19T07:34:50;4.10;;;2.53;;
18072;SDS011;9161;47.348;9.648;2023-05-19T07:39:52;5.17;;;2.30;;
18072;SDS011;9161;47.348;9.648;2023-05-19T07:44:54;2.97;;;2.13;;
18072;SDS011;9161;47.348;9.648;2023-05-19T07:49:57;4.43;;;2.10;;
18072;SDS011;9161;47.348;9.648;2023-05-19T07:54:59;7.73;;;2.57;;
18072;SDS011;9161;47.348;9.648;2023-05-19T08:00:02;6.77;;;2.47;;
18072;SDS011;9161;47.348;9.648;2023-05-19T08:05:08;3.07;;;2.13;;
18072;SDS011;9161;47.348;9.648;2023-05-19T08:10:11;6.20;;;2.47;;
18072;SDS011;9161;47.348;9.648;2023-05-19T08:15:13;4.60;;;2.63;;
18072;SDS011;9161;47.348;9.648;2023-05-19T08:20:17;4.67;;;2.67;;
18072;SDS011;9161;47.348;9.648;2023-05-19T08:25:19;3.40;;;2.37;;
18072;SDS011;9161;47.348;9.648;2023-05-19T08:30:21;3.60;;;2.37;;
18072;SDS011;9161;47.348;9.648;2023-05-19T08:35:25;3.80;;;2.10;;
18072;SDS011;9161;47.348;9.648;2023-05-19T08:40:27;4.83;;;2.30;;
18072;SDS011;9161;47.348;9.648;2023-05-19T08:45:31;4.53;;;2.43;;
18072;SDS011;9161;47.348;9.648;2023-05-19T08:50:38;5.33;;;2.60;;
18072;SDS011;9161;47.348;9.648;2023-05-19T08:55:42;4.67;;;2.33;;
18072;SDS011;9161;47.348;9.648;2023-05-19T09:00:52;4.67;;;2.80;;
18072;SDS011;9161;47.348;9.648;2023-05-19T09:05:57;7.00;;;2.80;;
18072;SDS011;9161;47.348;9.648;2023-05-19T09:11:00;7.30;;;2.50;;
18072;SDS011;9161;47.348;9.648;2023-05-19T09:16:02;4.65;;;2.38;;
18072;SDS011;9161;47.348;9.648;2023-05-19T09:21:06;3.78;;;2.60;;
18072;SDS011;9161;47.348;9.648;2023-05-19T09:26:11;4.05;;;2.53;;
18072;SDS011;9161;47.348;9.648;2023-05-19T09:31:16;3.90;;;2.53;;
18072;SDS011;9161;47.348;9.648;2023-05-19T09:36:20;3.10;;;2.60;;
18072;SDS011;9161;47.348;9.648;2023-05-19T09:41:22;5.93;;;3.05;;
18072;SDS011;9161;47.348;9.648;2023-05-19T09:46:24;5.47;;;3.15;;
18072;SDS011;9161;47.348;9.648;2023-05-19T09:51:29;3.78;;;2.70;;
18072;SDS011;9161;47.348;9.648;2023-05-19T09:56:33;6.72;;;2.90;;
18072;SDS011;9161;47.348;9.648;2023-05-19T10:01:35;4.28;;;2.80;;
18072;SDS011;9161;47.348;9.648;2023-05-19T10:06:42;4.65;;;2.90;;
18072;SDS011;9161;47.348;9.648;2023-05-19T10:11:45;4.22;;;2.83;;
18072;SDS011;9161;47.348;9.648;2023-05-19T10:16:48;6.07;;;2.92;;
18072;SDS011;9161;47.348;9.648;2023-05-19T10:21:53;5.20;;;3.07;;
18072;SDS011;9161;47.348;9.648;2023-05-19T10:26:56;5.10;;;3.33;;
18072;SDS011;9161;47.348;9.648;2023-05-19T10:32:03;5.67;;;3.30;;
18072;SDS011;9161;47.348;9.648;2023-05-19T10:37:12;12.30;;;4.00;;
18072;SDS011;9161;47.348;9.648;2023-05-19T10:42:24;4.77;;;3.30;;
18072;SDS011;9161;47.348;9.648;2023-05-19T10:47:33;5.73;;;3.53;;
18072;SDS011;9161;47.348;9.648;2023-05-19T10:52:38;7.30;;;3.40;;
18072;SDS011;9161;47.348;9.648;2023-05-19T10:57:51;6.67;;;3.77;;
18072;SDS011;9161;47.348;9.648;2023-05-19T11:03:10;5.17;;;3.60;;
18072;SDS011;9161;47.348;9.648;2023-05-19T11:08:15;7.00;;;3.70;;
18072;SDS011;9161;47.348;9.648;2023-05-19T11:13:19;9.70;;;4.75;;
18072;SDS011;9161;47.348;9.648;2023-05-19T11:18:22;6.88;;;3.60;;
18072;SDS011;9161;47.348;9.648;2023-05-19T11:23:26;9.10;;;3.85;;
18072;SDS011;9161;47.348;9.648;2023-05-19T11:28:28;5.60;;;3.25;;
18072;SDS011;9161;47.348;9.648;2023-05-19T11:33:31;8.10;;;3.30;;
18072;SDS011;9161;47.348;9.648;2023-05-19T11:38:35;6.30;;;3.53;;
18072;SDS011;9161;47.348;9.648;2023-05-19T11:43:38;7.00;;;3.63;;
18072;SDS011;9161;47.348;9.648;2023-05-19T11:48:42;6.40;;;3.42;;
18072;SDS011;9161;47.348;9.648;2023-05-19T11:53:49;6.25;;;3.97;;
18072;SDS011;9161;47.348;9.648;2023-05-19T11:58:53;5.78;;;3.55;;
18072;SDS011;9161;47.348;9.648;2023-05-19T12:03:56;7.63;;;3.70;;
18072;SDS011;9161;47.348;9.648;2023-05-19T12:09:00;6.90;;;3.92;;
18072;SDS011;9161;47.348;9.648;2023-05-19T12:14:02;5.72;;;3.80;;
18072;SDS011;9161;47.348;9.648;2023-05-19T12:19:07;6.18;;;3.58;;
18072;SDS011;9161;47.348;9.648;2023-05-19T12:24:11;6.72;;;3.70;;
18072;SDS011;9161;47.348;9.648;2023-05-19T12:29:14;7.93;;;3.47;;
18072;SDS011;9161;47.348;9.648;2023-05-19T12:34:16;7.50;;;3.70;;
18072;SDS011;9161;47.348;9.648;2023-05-19T12:39:20;6.15;;;3.88;;
18072;SDS011;9161;47.348;9.648;2023-05-19T12:44:22;6.20;;;3.13;;
18072;SDS011;9161;47.348;9.648;2023-05-19T12:49:26;5.03;;;3.55;;
18072;SDS011;9161;47.348;9.648;2023-05-19T12:54:33;5.32;;;3.47;;
18072;SDS011;9161;47.348;9.648;2023-05-19T12:59:35;7.25;;;3.45;;
18072;SDS011;9161;47.348;9.648;2023-05-19T13:04:37;6.38;;;3.28;;
18072;SDS011;9161;47.348;9.648;2023-05-19T13:09:41;10.02;;;4.45;;
18072;SDS011;9161;47.348;9.648;2023-05-19T13:14:44;17.17;;;7.70;;
18072;SDS011;9161;47.348;9.648;2023-05-19T13:19:46;6.55;;;3.10;;
18072;SDS011;9161;47.348;9.648;2023-05-19T13:24:50;7.80;;;2.87;;
18072;SDS011;9161;47.348;9.648;2023-05-19T13:29:52;5.20;;;3.17;;
18072;SDS011;9161;47.348;9.648;2023-05-19T13:34:55;6.20;;;3.27;;
18072;SDS011;9161;47.348;9.648;2023-05-19T13:39:58;7.33;;;3.07;;
18072;SDS011;9161;47.348;9.648;2023-05-19T13:45:00;9.57;;;3.33;;
18072;SDS011;9161;47.348;9.648;2023-05-19T13:50:03;6.63;;;2.93;;
18072;SDS011;9161;47.348;9.648;2023-05-19T13:55:08;6.87;;;3.17;;
18072;SDS011;9161;47.348;9.648;2023-05-19T14:00:10;9.97;;;2.97;;
18072;SDS011;9161;47.348;9.648;2023-05-19T14:05:13;5.90;;;3.20;;
18072;SDS011;9161;47.348;9.648;2023-05-19T14:10:17;7.10;;;3.10;;
18072;SDS011;9161;47.348;9.648;2023-05-19T14:15:19;6.13;;;2.93;;
18072;SDS011;9161;47.348;9.648;2023-05-19T14:20:21;18.70;;;3.70;;
18072;SDS011;9161;47.348;9.648;2023-05-19T14:25:27;8.40;;;2.90;;
18072;SDS011;9161;47.348;9.648;2023-05-19T14:30:30;5.47;;;3.30;;
18072;SDS011;9161;47.348;9.648;2023-05-19T14:35:32;5.93;;;2.53;;
18072;SDS011;9161;47.348;9.648;2023-05-19T14:40:36;8.07;;;2.83;;
18072;SDS011;9161;47.348;9.648;2023-05-19T14:45:40;7.80;;;2.77;;
18072;SDS011;9161;47.348;9.648;2023-05-19T14:50:42;6.33;;;3.33;;
18072;SDS011;9161;47.348;9.648;2023-05-19T14:55:47;6.90;;;3.10;;
18072;SDS011;9161;47.348;9.648;2023-05-19T15:00:49;6.67;;;3.40;;
18072;SDS011;9161;47.348;9.648;2023-05-19T15:05:51;8.10;;;3.50;;
18072;SDS011;9161;47.348;9.648;2023-05-19T15:10:55;14.40;;;3.80;;
18072;SDS011;9161;47.348;9.648;2023-05-19T15:15:57;7.07;;;3.27;;
18072;SDS011;9161;47.348;9.648;2023-05-19T15:21:15;8.67;;;3.90;;
18072;SDS011;9161;47.348;9.648;2023-05-19T15:26:19;8.47;;;4.20;;
18072;SDS011;9161;47.348;9.648;2023-05-19T15:31:21;7.73;;;3.90;;
18072;SDS011;9161;47.348;9.648;2023-05-19T15:36:24;7.90;;;4.43;;
18072;SDS011;9161;47.348;9.648;2023-05-19T15:41:27;7.37;;;4.23;;
18072;SDS011;9161;47.348;9.648;2023-05-19T15:46:30;8.13;;;4.43;;
18072;SDS011;9161;47.348;9.648;2023-05-19T15:51:32;10.40;;;4.90;;
18072;SDS011;9161;47.348;9.648;2023-05-19T15:56:36;10.13;;;5.40;;
18072;SDS011;9161;47.348;9.648;2023-05-19T16:01:39;7.37;;;4.60;;
18072;SDS011;9161;47.348;9.648;2023-05-19T16:06:41;8.33;;;5.03;;
18072;SDS011;9161;47.348;9.648;2023-05-19T16:11:44;10.43;;;5.40;;
18072;SDS011;9161;47.348;9.648;2023-05-19T16:16:46;9.40;;;5.40;;
18072;SDS011;9161;47.348;9.648;2023-05-19T16:21:50;9.60;;;5.70;;
18072;SDS011;9161;47.348;9.648;2023-05-19T16:26:54;11.20;;;5.90;;
18072;SDS011;9161;47.348;9.648;2023-05-19T16:31:56;12.10;;;6.13;;
18072;SDS011;9161;47.348;9.648;2023-05-19T16:36:58;13.60;;;7.17;;
18072;SDS011;9161;47.348;9.648;2023-05-19T16:42:02;11.60;;;6.33;;
18072;SDS011;9161;47.348;9.648;2023-05-19T16:47:04;11.00;;;6.30;;
18072;SDS011;9161;47.348;9.648;2023-05-19T16:52:07;11.63;;;6.70;;
18072;SDS011;9161;47.348;9.648;2023-05-19T16:57:10;12.90;;;6.60;;
18072;SDS011;9161;47.348;9.648;2023-05-19T17:02:13;13.27;;;6.70;;
18072;SDS011;9161;47.348;9.648;2023-05-19T17:07:16;11.30;;;6.33;;
18072;SDS011;9161;47.348;9.648;2023-05-19T17:12:19;13.20;;;6.93;;
18072;SDS011;9161;47.348;9.648;2023-05-19T17:17:22;15.90;;;7.90;;
18072;SDS011;9161;47.348;9.648;2023-05-19T17:22:24;14.70;;;7.30;;
18072;SDS011;9161;47.348;9.648;2023-05-19T17:27:30;12.67;;;6.50;;
18072;SDS011;9161;47.348;9.648;2023-05-19T17:32:33;11.23;;;6.87;;
18072;SDS011;9161;47.348;9.648;2023-05-19T17:37:38;11.20;;;6.77;;
18072;SDS011;9161;47.348;9.648;2023-05-19T17:42:42;24.20;;;8.83;;
18072;SDS011;9161;47.348;9.648;2023-05-19T17:47:44;11.33;;;6.70;;
18072;SDS011;9161;47.348;9.648;2023-05-19T17:52:47;13.53;;;7.27;;
18072;SDS011;9161;47.348;9.648;2023-05-19T17:57:51;10.27;;;6.87;;
18072;SDS011;9161;47.348;9.648;2023-05-19T18:02:54;12.17;;;6.93;;
18072;SDS011;9161;47.348;9.648;2023-05-19T18:07:57;11.20;;;7.17;;
18072;SDS011;9161;47.348;9.648;2023-05-19T18:25:53;11.80;;;7.13;;
18072;SDS011;9161;47.348;9.648;2023-05-19T18:31:29;16.87;;;7.20;;
18072;SDS011;9161;47.348;9.648;2023-05-19T18:36:34;14.37;;;7.43;;
18072;SDS011;9161;47.348;9.648;2023-05-19T18:41:38;9.93;;;7.07;;
18072;SDS011;9161;47.348;9.648;2023-05-19T18:46:42;14.87;;;8.10;;
18072;SDS011;9161;47.348;9.648;2023-05-19T18:51:45;13.50;;;7.70;;
18072;SDS011;9161;47.348;9.648;2023-05-19T18:56:51;11.23;;;6.93;;
18072;SDS011;9161;47.348;9.648;2023-05-19T19:01:53;13.97;;;6.77;;
18072;SDS011;9161;47.348;9.648;2023-05-19T19:06:56;10.43;;;7.23;;
18072;SDS011;9161;47.348;9.648;2023-05-19T19:12:01;18.70;;;7.13;;
18072;SDS011;9161;47.348;9.648;2023-05-19T19:17:03;10.77;;;6.57;;
18072;SDS011;9161;47.348;9.648;2023-05-19T19:22:07;11.27;;;6.90;;
18072;SDS011;9161;47.348;9.648;2023-05-19T19:27:12;10.47;;;6.33;;
18072;SDS011;9161;47.348;9.648;2023-05-19T19:32:16;12.60;;;7.13;;
18072;SDS011;9161;47.348;9.648;2023-05-19T19:37:19;11.27;;;7.20;;
18072;SDS011;9161;47.348;9.648;2023-05-19T19:42:24;11.83;;;7.10;;
18072;SDS011;9161;47.348;9.648;2023-05-19T19:47:28;16.23;;;8.03;;
18072;SDS011;9161;47.348;9.648;2023-05-19T19:52:31;14.03;;;7.90;;
18072;SDS011;9161;47.348;9.648;2023-05-19T19:57:35;13.77;;;7.80;;
18072;SDS011;9161;47.348;9.648;2023-05-19T20:02:38;13.73;;;7.80;;
18072;SDS011;9161;47.348;9.648;2023-05-19T20:08:02;15.70;;;8.00;;
18072;SDS011;9161;47.348;9.648;2023-05-19T20:13:07;11.90;;;7.40;;
18072;SDS011;9161;47.348;9.648;2023-05-19T20:18:10;18.93;;;8.20;;
18072;SDS011;9161;47.348;9.648;2023-05-19T20:23:14;11.40;;;7.43;;
18072;SDS011;9161;47.348;9.648;2023-05-19T20:28:19;13.20;;;7.53;;
18072;SDS011;9161;47.348;9.648;2023-05-19T20:33:23;11.20;;;7.07;;
18072;SDS011;9161;47.348;9.648;2023-05-19T20:38:26;13.17;;;7.47;;
18072;SDS011;9161;47.348;9.648;2023-05-19T20:43:31;12.83;;;6.93;;
18072;SDS011;9161;47.348;9.648;2023-05-19T20:48:34;11.20;;;7.30;;
18072;SDS011;9161;47.348;9.648;2023-05-19T20:53:37;12.20;;;7.43;;
18072;SDS011;9161;47.348;9.648;2023-05-19T20:58:41;9.83;;;6.63;;
18072;SDS011;9161;47.348;9.648;2023-05-19T21:03:43;21.77;;;7.90;;
18072;SDS011;9161;47.348;9.648;2023-05-19T21:08:45;11.93;;;7.00;;
18072;SDS011;9161;47.348;9.648;2023-05-19T21:13:50;12.70;;;7.20;;
18072;SDS011;9161;47.348;9.648;2023-05-19T21:18:53;10.57;;;7.00;;
18072;SDS011;9161;47.348;9.648;2023-05-19T21:23:56;11.23;;;6.90;;
18072;SDS011;9161;47.348;9.648;2023-05-19T21:29:00;12.07;;;7.47;;
18072;SDS011;9161;47.348;9.648;2023-05-19T21:34:02;14.67;;;7.70;;
18072;SDS011;9161;47.348;9.648;2023-05-19T21:39:06;11.40;;;7.40;;
18072;SDS011;9161;47.348;9.648;2023-05-19T21:44:13;11.83;;;7.10;;
18072;SDS011;9161;47.348;9.648;2023-05-19T21:49:15;12.20;;;7.17;;
18072;SDS011;9161;47.348;9.648;2023-05-19T21:54:17;12.23;;;7.53;;
18072;SDS011;9161;47.348;9.648;2023-05-19T21:59:21;17.00;;;7.03;;
18072;SDS011;9161;47.348;9.648;2023-05-19T22:04:23;12.93;;;8.20;;
18072;SDS011;9161;47.348;9.648;2023-05-19T22:09:30;17.37;;;8.73;;
18072;SDS011;9161;47.348;9.648;2023-05-19T22:14:34;12.87;;;8.20;;
18072;SDS011;9161;47.348;9.648;2023-05-19T22:19:36;14.53;;;7.70;;
18072;SDS011;9161;47.348;9.648;2023-05-19T22:24:39;14.10;;;7.50;;
18072;SDS011;9161;47.348;9.648;2023-05-19T22:29:43;11.57;;;7.67;;
18072;SDS011;9161;47.348;9.648;2023-05-19T22:34:46;12.73;;;7.30;;
18072;SDS011;9161;47.348;9.648;2023-05-19T22:39:48;12.80;;;7.00;;
18072;SDS011;9161;47.348;9.648;2023-05-19T22:44:52;12.47;;;7.47;;
18072;SDS011;9161;47.348;9.648;2023-05-19T22:49:55;14.83;;;8.33;;
18072;SDS011;9161;47.348;9.648;2023-05-19T22:54:56;12.23;;;8.33;;
18072;SDS011;9161;47.348;9.648;2023-05-19T23:00:00;14.47;;;8.20;;
18072;SDS011;9161;47.348;9.648;2023-05-19T23:05:02;13.37;;;7.93;;
18072;SDS011;9161;47.348;9.648;2023-05-19T23:10:04;12.00;;;7.33;;
18072;SDS011;9161;47.348;9.648;2023-05-19T23:15:09;13.53;;;7.90;;
18072;SDS011;9161;47.348;9.648;2023-05-19T23:20:12;8.33;;;6.20;;
18072;SDS011;9161;47.348;9.648;2023-05-19T23:25:14;11.43;;;6.63;;
18072;SDS011;9161;47.348;9.648;2023-05-19T23:30:19;12.90;;;8.00;;
18072;SDS011;9161;47.348;9.648;2023-05-19T23:35:20;14.03;;;8.90;;
18072;SDS011;9161;47.348;9.648;2023-05-19T23:40:22;12.77;;;7.87;;
18072;SDS011;9161;47.348;9.648;2023-05-19T23:45:26;14.77;;;8.37;;
18072;SDS011;9161;47.348;9.648;2023-05-19T23:50:28;12.20;;;8.27;;
18072;SDS011;9161;47.348;9.648;2023-05-19T23:55:32;12.90;;;7.73;;
